Time;durP1;ratioP1;P1;durP2;ratioP2;P2;SDS_P1;SDS_P2;PMS_P1;PMS_P2;Temp;Humidity;BMP_temperature;BMP_pressure;BME280_temperature;BME280_humidity;BME280_pressure;Samples;Min_cycle;Max_cycle;Signal;HPM_P1;HPM_P2
2023/10/29 00:02:19;;;;;;;12.80;2.30;;;;;;;10.62;100.00;99303.48;110747;1272;22219;-77
2023/10/29 00:04:47;;;;;;;12.40;2.60;;;;;;;10.63;100.00;99303.04;110758;1266;22339;-77
2023/10/29 00:07:15;;;;;;;11.60;2.40;;;;;;;10.63;100.00;99307.11;110779;1265;22942;-77
2023/10/29 00:09:43;;;;;;;12.80;2.60;;;;;;;10.63;100.00;99303.85;110719;1266;22393;-77
2023/10/29 00:12:12;;;;;;;10.00;2.10;;;;;;;10.63;100.00;99306.39;110721;1269;22247;-77
2023/10/29 00:14:40;;;;;;;12.70;1.90;;;;;;;10.63;100.00;99308.36;110721;1272;22264;-76
2023/10/29 00:17:08;;;;;;;11.20;2.10;;;;;;;10.64;100.00;99309.59;110561;1266;210341;-77
2023/10/29 00:19:36;;;;;;;12.70;2.30;;;;;;;10.64;100.00;99308.83;110714;1267;22177;-77
2023/10/29 00:22:04;;;;;;;12.70;2.30;;;;;;;10.65;100.00;99313.55;110708;1272;22253;-77
2023/10/29 00:24:32;;;;;;;10.00;2.00;;;;;;;10.66;100.00;99319.63;110734;1270;22340;-77
2023/10/29 00:27:01;;;;;;;13.90;2.00;;;;;;;10.67;100.00;99317.52;110774;1272;22173;-76
2023/10/29 00:29:29;;;;;;;11.70;2.00;;;;;;;10.69;100.00;99318.28;110772;1272;22578;-77
2023/10/29 00:31:57;;;;;;;8.70;2.00;;;;;;;10.69;100.00;99314.02;110716;1267;22815;-77
2023/10/29 00:34:25;;;;;;;12.70;2.20;;;;;;;10.71;100.00;99312.20;110744;1265;22686;-77
2023/10/29 00:36:53;;;;;;;8.20;2.10;;;;;;;10.72;100.00;99315.30;110744;1272;22295;-77
2023/10/29 00:39:21;;;;;;;11.90;2.20;;;;;;;10.73;100.00;99317.90;110728;1265;22179;-76
2023/10/29 00:41:49;;;;;;;9.80;2.30;;;;;;;10.74;100.00;99323.99;110719;1269;22400;-76
2023/10/29 00:44:17;;;;;;;15.60;2.50;;;;;;;10.75;100.00;99320.79;110669;1266;22459;-77
2023/10/29 00:46:45;;;;;;;12.30;2.10;;;;;;;10.76;100.00;99324.55;110737;1269;22270;-77
2023/10/29 00:49:13;;;;;;;8.50;1.60;;;;;;;10.76;100.00;99325.92;110711;1272;23273;-77
2023/10/29 00:51:42;;;;;;;12.40;2.00;;;;;;;10.72;100.00;99327.94;110701;1266;22399;-77
2023/10/29 00:54:10;;;;;;;11.80;1.60;;;;;;;10.70;100.00;99326.16;110757;1272;22172;-77
2023/10/29 00:56:39;;;;;;;9.40;1.70;;;;;;;10.69;100.00;99325.04;110782;1267;22228;-78
2023/10/29 00:59:07;;;;;;;9.60;1.50;;;;;;;10.68;100.00;99323.27;110765;1266;23147;-78
2023/10/29 01:01:35;;;;;;;7.80;1.50;;;;;;;10.67;100.00;99320.83;110762;1268;22175;-78
2023/10/29 01:04:04;;;;;;;9.20;1.70;;;;;;;10.66;100.00;99319.18;110708;1266;22263;-78
2023/10/29 01:06:33;;;;;;;7.70;1.80;;;;;;;10.66;100.00;99319.99;110802;1268;23009;-78
2023/10/29 01:09:01;;;;;;;10.70;1.80;;;;;;;10.64;100.00;99326.64;110773;1269;22403;-78
2023/10/29 01:11:29;;;;;;;9.40;1.70;;;;;;;10.62;100.00;99325.92;110745;1266;22612;-78
2023/10/29 01:13:57;;;;;;;12.70;1.80;;;;;;;10.59;100.00;99329.55;110761;1272;23141;-78
2023/10/29 01:16:27;;;;;;;10.40;1.60;;;;;;;10.59;100.00;99325.55;110815;1272;22166;-78
2023/10/29 01:18:56;;;;;;;8.30;2.10;;;;;;;10.57;100.00;99325.19;110789;1270;22120;-76
2023/10/29 01:21:26;;;;;;;8.90;1.70;;;;;;;10.56;100.00;99332.04;110760;1268;22388;-76
2023/10/29 01:23:54;;;;;;;10.50;2.10;;;;;;;10.54;100.00;99325.44;110740;1272;23139;-76
2023/10/29 01:26:22;;;;;;;10.80;1.50;;;;;;;10.53;100.00;99325.08;110803;1267;22470;-77
2023/10/29 01:28:51;;;;;;;12.60;1.80;;;;;;;10.51;100.00;99323.54;110783;1272;22240;-76
2023/10/29 01:31:19;;;;;;;7.40;1.90;;;;;;;10.48;100.00;99319.27;110757;1272;22500;-76
2023/10/29 01:33:47;;;;;;;9.50;2.30;;;;;;;10.45;100.00;99317.77;110759;1266;22329;-76
2023/10/29 01:36:15;;;;;;;10.20;1.90;;;;;;;10.41;100.00;99314.21;110756;1272;22239;-77
2023/10/29 01:38:43;;;;;;;10.80;1.90;;;;;;;10.38;100.00;99311.50;110777;1272;22496;-77
2023/10/29 01:41:11;;;;;;;11.20;2.50;;;;;;;10.34;100.00;99308.80;110711;1269;23004;-77
2023/10/29 01:43:39;;;;;;;6.60;1.60;;;;;;;10.30;100.00;99304.83;110800;1272;23508;-77
2023/10/29 01:46:07;;;;;;;12.60;2.80;;;;;;;10.26;100.00;99308.70;110724;1265;22491;-77
2023/10/29 01:48:35;;;;;;;10.70;2.20;;;;;;;10.23;100.00;99309.30;110776;1266;22307;-76
2023/10/29 01:51:06;;;;;;;11.00;2.40;;;;;;;10.19;100.00;99302.73;110760;1272;22241;-77
2023/10/29 01:53:35;;;;;;;11.00;2.10;;;;;;;10.15;100.00;99302.06;110813;1272;22351;-77
2023/10/29 01:56:07;;;;;;;11.20;2.20;;;;;;;10.11;100.00;99301.46;110722;1272;22950;-77
2023/10/29 01:58:35;;;;;;;10.90;1.80;;;;;;;10.08;100.00;99298.98;110773;1266;23410;-78
2023/10/29 02:01:09;;;;;;;10.30;2.10;;;;;;;10.07;100.00;99303.20;110774;1267;22725;-77
2023/10/29 02:03:37;;;;;;;12.60;1.70;;;;;;;10.05;100.00;99303.84;110744;1266;22481;-76
2023/10/29 02:06:14;;;;;;;9.50;1.60;;;;;;;10.03;100.00;99307.34;110790;1272;22881;-76
2023/10/29 02:08:42;;;;;;;11.00;1.80;;;;;;;10.03;100.00;99301.70;110781;1272;22217;-77
2023/10/29 02:11:10;;;;;;;6.00;1.40;;;;;;;10.02;100.00;99306.20;110760;1272;23614;-77
2023/10/29 02:13:39;;;;;;;7.90;1.60;;;;;;;10.02;100.00;99301.34;110680;1272;22923;-78
2023/10/29 02:16:09;;;;;;;9.10;1.70;;;;;;;10.01;100.00;99302.70;110637;1272;22326;-77
2023/10/29 02:18:37;;;;;;;10.30;2.00;;;;;;;9.99;100.00;99305.02;110650;1262;22248;-77
2023/10/29 02:21:05;;;;;;;11.90;1.80;;;;;;;9.99;100.00;99302.64;110623;1266;22185;-77
2023/10/29 02:23:34;;;;;;;8.30;1.50;;;;;;;9.99;100.00;99296.30;110613;1272;22500;-77
2023/10/29 02:26:02;;;;;;;8.10;1.40;;;;;;;10.00;100.00;99297.11;110638;1269;22215;-77
2023/10/29 02:28:30;;;;;;;11.30;1.50;;;;;;;10.00;100.00;99295.90;110699;1272;22247;-76
2023/10/29 02:30:58;;;;;;;8.90;1.50;;;;;;;10.02;100.00;99299.27;110713;1272;22316;-76
2023/10/29 02:33:30;;;;;;;12.20;1.80;;;;;;;10.04;100.00;99299.17;110727;1272;22414;-76
2023/10/29 02:35:58;;;;;;;10.50;1.30;;;;;;;10.05;100.00;99302.38;110639;1272;22329;-77
2023/10/29 02:38:26;;;;;;;12.50;1.60;;;;;;;10.06;100.00;99304.80;110637;1272;22389;-76
2023/10/29 02:40:54;;;;;;;8.20;1.40;;;;;;;10.08;100.00;99304.36;110668;1272;22393;-76
2023/10/29 02:43:22;;;;;;;9.90;1.60;;;;;;;10.09;100.00;99303.16;110694;1272;22298;-76
2023/10/29 02:45:50;;;;;;;8.30;1.70;;;;;;;10.10;100.00;99301.36;110598;1272;22165;-76
2023/10/29 02:48:20;;;;;;;8.70;1.50;;;;;;;10.13;100.00;99310.61;110617;1272;22270;-76
2023/10/29 02:50:48;;;;;;;8.10;2.10;;;;;;;10.15;100.00;99318.73;110587;1272;22211;-76
2023/10/29 02:53:17;;;;;;;6.80;1.20;;;;;;;10.15;100.00;99322.25;110730;1272;22481;-76
2023/10/29 02:55:45;;;;;;;10.10;1.50;;;;;;;10.16;100.00;99324.38;110619;1272;22330;-76
2023/10/29 02:58:13;;;;;;;7.30;1.40;;;;;;;10.17;100.00;99321.02;110684;1272;22172;-76
2023/10/29 03:00:41;;;;;;;11.80;1.80;;;;;;;10.18;100.00;99316.42;110676;1272;22148;-77
2023/10/29 03:03:10;;;;;;;9.10;1.80;;;;;;;10.17;100.00;99318.76;110717;1272;22694;-77
2023/10/29 03:05:38;;;;;;;10.10;2.00;;;;;;;10.17;100.00;99313.02;110538;1272;22187;-77
2023/10/29 03:08:06;;;;;;;8.70;2.10;;;;;;;10.18;100.00;99313.08;110741;1269;22202;-77
2023/10/29 03:10:34;;;;;;;15.60;2.20;;;;;;;10.18;100.00;99312.00;110602;1273;22152;-77
2023/10/29 03:13:02;;;;;;;6.70;1.70;;;;;;;10.16;100.00;99314.70;110657;1272;22170;-77
2023/10/29 03:15:30;;;;;;;12.40;1.90;;;;;;;10.16;100.00;99321.79;110717;1272;22298;-77
2023/10/29 03:17:58;;;;;;;9.80;1.60;;;;;;;10.17;100.00;99323.88;110711;1272;22337;-77
2023/10/29 03:20:26;;;;;;;11.00;1.70;;;;;;;10.19;100.00;99319.52;110730;1272;22272;-77
2023/10/29 03:22:54;;;;;;;8.70;1.40;;;;;;;10.20;100.00;99321.41;110682;1272;22383;-77
2023/10/29 03:25:22;;;;;;;8.10;1.40;;;;;;;10.20;100.00;99319.94;110712;1272;22457;-77
2023/10/29 03:27:50;;;;;;;9.10;2.10;;;;;;;10.21;100.00;99314.96;110671;1267;22213;-77
2023/10/29 03:30:19;;;;;;;27.50;6.80;;;;;;;10.22;100.00;99318.62;110730;1272;22225;-77
2023/10/29 03:32:47;;;;;;;28.60;8.90;;;;;;;10.22;100.00;99318.77;110713;1267;22416;-76
2023/10/29 03:35:15;;;;;;;33.70;10.20;;;;;;;10.22;100.00;99319.13;110745;1272;22248;-78
2023/10/29 03:37:43;;;;;;;29.40;9.70;;;;;;;10.23;100.00;99315.28;110734;1272;22414;-77
2023/10/29 03:40:12;;;;;;;29.80;8.70;;;;;;;10.23;100.00;99314.78;110676;1272;22142;-77
2023/10/29 03:42:40;;;;;;;23.00;7.40;;;;;;;10.23;100.00;99312.55;110583;1272;22219;-77
2023/10/29 03:45:09;;;;;;;19.80;5.50;;;;;;;10.23;100.00;99312.19;110718;1272;23316;-77
2023/10/29 03:47:37;;;;;;;17.30;3.60;;;;;;;10.23;100.00;99312.73;110758;1272;22362;-76
2023/10/29 03:50:08;;;;;;;12.50;3.50;;;;;;;10.22;100.00;99307.67;110733;1272;22168;-77
2023/10/29 03:52:37;;;;;;;16.50;3.70;;;;;;;10.22;100.00;99302.91;110677;1272;22182;-77
2023/10/29 03:55:06;;;;;;;8.40;1.90;;;;;;;10.23;100.00;99298.80;110727;1272;22212;-78
2023/10/29 03:57:34;;;;;;;10.80;2.00;;;;;;;10.22;100.00;99292.45;110739;1272;22207;-77
2023/10/29 04:00:02;;;;;;;14.30;2.80;;;;;;;10.23;100.00;99290.69;110680;1272;22849;-77
2023/10/29 04:02:31;;;;;;;11.30;2.80;;;;;;;10.23;100.00;99286.83;110719;1272;22223;-77
2023/10/29 04:04:59;;;;;;;13.60;2.60;;;;;;;10.23;100.00;99285.71;110720;1269;22152;-77
2023/10/29 04:07:27;;;;;;;15.40;2.70;;;;;;;10.21;100.00;99287.98;110720;1272;22481;-77
2023/10/29 04:09:56;;;;;;;11.20;2.50;;;;;;;10.19;100.00;99290.92;110697;1272;22211;-78
2023/10/29 04:12:26;;;;;;;13.40;2.30;;;;;;;10.15;100.00;99294.70;110671;1272;22283;-78
2023/10/29 04:14:53;;;;;;;;;;;;;;;10.08;100.00;99294.73;110722;1272;22510;-77
2023/10/29 04:17:21;;;;;;;13.40;2.00;;;;;;;10.04;100.00;99288.64;110710;1272;22378;-77
2023/10/29 04:19:49;;;;;;;8.10;1.60;;;;;;;10.02;100.00;99286.99;110724;1272;22389;-77
2023/10/29 04:22:17;;;;;;;12.30;1.80;;;;;;;10.00;100.00;99283.89;110721;1272;22131;-77
2023/10/29 04:24:46;;;;;;;9.00;1.50;;;;;;;9.98;100.00;99282.50;110708;1272;22415;-77
2023/10/29 04:27:14;;;;;;;8.80;1.60;;;;;;;9.96;100.00;99285.33;110705;1272;22249;-76
2023/10/29 04:29:42;;;;;;;9.50;1.90;;;;;;;9.94;100.00;99284.77;110707;1267;22172;-77
2023/10/29 04:32:10;;;;;;;12.80;1.60;;;;;;;9.91;100.00;99282.46;110698;1269;22162;-76
2023/10/29 04:34:38;;;;;;;7.80;1.60;;;;;;;9.89;100.00;99281.64;110647;1270;22204;-77
2023/10/29 04:37:06;;;;;;;12.80;3.00;;;;;;;9.88;100.00;99290.30;110718;1262;22313;-76
2023/10/29 04:39:34;;;;;;;13.50;3.10;;;;;;;9.86;100.00;99284.96;110719;1272;22236;-76
2023/10/29 04:42:02;;;;;;;10.20;2.50;;;;;;;9.84;100.00;99285.41;110712;1272;22160;-77
2023/10/29 04:44:31;;;;;;;10.50;3.00;;;;;;;9.81;100.00;99290.86;110726;1262;22465;-76
2023/10/29 04:46:59;;;;;;;11.50;3.30;;;;;;;9.77;100.00;99299.40;110731;1272;22176;-76
2023/10/29 04:49:27;;;;;;;13.90;2.20;;;;;;;9.72;100.00;99304.98;110742;1272;22208;-77
2023/10/29 04:51:55;;;;;;;7.80;1.80;;;;;;;9.68;100.00;99305.72;110711;1272;22202;-76
2023/10/29 04:54:23;;;;;;;6.60;1.80;;;;;;;9.64;100.00;99305.69;110739;1272;22471;-77
2023/10/29 04:56:51;;;;;;;7.00;1.60;;;;;;;9.63;100.00;99305.02;110702;1272;22322;-76
2023/10/29 04:59:19;;;;;;;7.50;1.60;;;;;;;9.61;100.00;99315.55;110822;1272;22328;-77
2023/10/29 05:01:47;;;;;;;9.00;1.60;;;;;;;9.58;100.00;99316.04;110675;1272;22382;-76
2023/10/29 05:04:15;;;;;;;10.00;2.00;;;;;;;9.55;100.00;99315.10;110704;1272;22214;-77
2023/10/29 05:06:43;;;;;;;9.10;2.10;;;;;;;9.52;100.00;99310.21;110732;1272;22228;-77
2023/10/29 05:09:11;;;;;;;12.10;2.40;;;;;;;9.47;100.00;99311.63;110727;1272;22171;-77
2023/10/29 05:11:39;;;;;;;7.20;2.00;;;;;;;9.43;100.00;99310.95;110727;1268;22202;-77
2023/10/29 05:14:07;;;;;;;11.40;1.80;;;;;;;9.41;100.00;99307.38;110720;1272;22240;-76
2023/10/29 05:16:36;;;;;;;9.50;1.80;;;;;;;9.40;100.00;99301.90;110763;1262;22147;-76
2023/10/29 05:19:04;;;;;;;7.10;1.50;;;;;;;9.41;100.00;99300.02;108900;1272;23484;-76
2023/10/29 05:21:32;;;;;;;6.60;1.70;;;;;;;9.42;100.00;99297.61;108001;1272;23679;-76
2023/10/29 05:24:00;;;;;;;8.10;1.40;;;;;;;9.42;100.00;99293.56;107793;1272;22595;-76
2023/10/29 05:26:28;;;;;;;5.50;1.30;;;;;;;9.43;100.00;99287.70;107871;1272;23733;-76
2023/10/29 05:28:56;;;;;;;8.60;1.80;;;;;;;9.45;100.00;99286.89;107931;1272;22550;-77
2023/10/29 05:31:24;;;;;;;7.00;2.10;;;;;;;9.46;100.00;99286.25;107932;1272;23376;-76
2023/10/29 05:33:52;;;;;;;6.80;1.50;;;;;;;9.46;100.00;99281.98;107910;1259;24190;-76
2023/10/29 05:36:20;;;;;;;14.40;1.50;;;;;;;9.45;100.00;99274.04;107859;1272;24288;-76
2023/10/29 05:38:48;;;;;;;8.40;1.50;;;;;;;9.47;100.00;99273.64;107815;1272;22566;-76
2023/10/29 05:41:17;;;;;;;29.50;18.10;;;;;;;9.49;100.00;99270.71;107894;1272;23748;-76
2023/10/29 05:43:47;;;;;;;41.40;24.90;;;;;;;9.50;100.00;99265.00;110695;1272;22490;-76
2023/10/29 05:46:16;;;;;;;37.00;24.30;;;;;;;9.49;100.00;99262.63;110597;1272;22221;-76
2023/10/29 05:48:44;;;;;;;33.10;19.30;;;;;;;9.51;100.00;99259.04;110785;1272;22264;-77
2023/10/29 05:51:18;;;;;;;22.20;10.20;;;;;;;9.52;100.00;99255.19;110774;1272;22341;-77
2023/10/29 05:53:47;;;;;;;21.10;10.80;;;;;;;9.53;100.00;99256.77;110747;1272;22384;-76
2023/10/29 05:56:15;;;;;;;12.40;2.80;;;;;;;9.54;100.00;99254.04;110777;1272;22190;-76
2023/10/29 05:58:43;;;;;;;15.20;3.30;;;;;;;9.55;100.00;99258.70;110771;1272;22273;-77
2023/10/29 06:01:11;;;;;;;7.70;1.80;;;;;;;9.55;100.00;99253.69;110762;1272;22194;-77
2023/10/29 06:03:39;;;;;;;8.80;1.60;;;;;;;9.55;100.00;99256.48;110641;1272;22531;-77
2023/10/29 06:06:07;;;;;;;9.10;1.80;;;;;;;9.56;100.00;99261.64;110691;1272;22194;-77
2023/10/29 06:08:36;;;;;;;10.40;1.90;;;;;;;9.56;100.00;99257.35;110750;1272;22238;-77
2023/10/29 06:11:05;;;;;;;10.90;2.10;;;;;;;9.56;100.00;99259.88;110773;1267;22681;-77
2023/10/29 06:13:33;;;;;;;10.90;2.80;;;;;;;9.58;100.00;99268.20;110797;1272;22416;-77
2023/10/29 06:16:06;;;;;;;11.90;2.30;;;;;;;9.59;100.00;99271.05;110779;1272;22228;-77
2023/10/29 06:18:33;;;;;;;10.40;1.80;;;;;;;9.59;100.00;99272.22;110779;1272;22183;-77
2023/10/29 06:21:02;;;;;;;11.60;2.60;;;;;;;9.60;100.00;99270.70;110756;1272;22306;-77
2023/10/29 06:23:30;;;;;;;17.10;6.00;;;;;;;9.61;100.00;99266.02;110774;1272;23216;-77
2023/10/29 06:25:58;;;;;;;19.90;7.20;;;;;;;9.62;100.00;99271.12;110743;1272;22225;-76
2023/10/29 06:28:26;;;;;;;23.60;7.10;;;;;;;9.63;100.00;99265.45;110734;1268;22212;-77
2023/10/29 06:30:54;;;;;;;18.90;6.50;;;;;;;9.64;100.00;99271.48;110746;1272;22247;-76
2023/10/29 06:33:22;;;;;;;15.30;4.30;;;;;;;9.65;100.00;99277.06;110756;1272;22173;-76
2023/10/29 06:35:50;;;;;;;13.20;4.30;;;;;;;9.66;100.00;99272.22;110665;1272;22253;-76
2023/10/29 06:38:19;;;;;;;15.20;5.00;;;;;;;9.67;100.00;99271.11;110752;1272;22455;-76
2023/10/29 06:40:47;;;;;;;13.60;3.10;;;;;;;9.65;100.00;99276.98;110729;1266;22345;-76
2023/10/29 06:43:15;;;;;;;12.00;2.60;;;;;;;9.65;100.00;99277.32;110719;1272;22204;-76
2023/10/29 06:45:43;;;;;;;10.40;1.70;;;;;;;9.64;100.00;99277.52;110730;1272;22457;-77
2023/10/29 06:48:11;;;;;;;8.90;2.00;;;;;;;9.64;100.00;99275.90;110741;1272;22188;-77
2023/10/29 06:50:41;;;;;;;13.00;3.40;;;;;;;9.66;100.00;99271.71;110689;1272;22207;-76
2023/10/29 06:53:09;;;;;;;;;;;;;;;9.69;100.00;99283.98;110673;1266;22420;-77
2023/10/29 06:55:37;;;;;;;16.10;3.80;;;;;;;9.68;100.00;99290.63;110666;1272;22287;-76
2023/10/29 06:58:08;;;;;;;9.80;2.40;;;;;;;9.71;100.00;99285.06;110685;1272;23308;-75
2023/10/29 07:00:36;;;;;;;9.10;1.50;;;;;;;9.71;100.00;99285.58;110689;1267;22350;-73
2023/10/29 07:03:04;;;;;;;9.80;1.60;;;;;;;9.73;100.00;99291.92;110709;1269;22375;-75
2023/10/29 07:05:32;;;;;;;10.80;2.00;;;;;;;9.73;100.00;99287.67;110700;1267;22435;-73
2023/10/29 07:08:01;;;;;;;12.10;1.70;;;;;;;9.74;100.00;99288.38;110739;1266;22478;-73
2023/10/29 07:10:29;;;;;;;12.20;2.30;;;;;;;9.76;100.00;99288.45;110718;1269;23713;-74
2023/10/29 07:12:57;;;;;;;10.10;2.20;;;;;;;9.76;100.00;99293.79;110722;1269;22990;-74
2023/10/29 07:15:25;;;;;;;13.80;3.80;;;;;;;9.77;100.00;99296.27;110718;1269;22663;-74
2023/10/29 07:17:54;;;;;;;11.80;2.60;;;;;;;9.80;100.00;99299.37;110752;1269;23073;-73
2023/10/29 07:20:22;;;;;;;9.70;1.70;;;;;;;9.82;100.00;99299.95;110712;1269;22856;-73
2023/10/29 07:22:50;;;;;;;9.80;1.60;;;;;;;9.85;100.00;99302.86;110682;1265;23229;-74
2023/10/29 07:25:18;;;;;;;10.60;1.60;;;;;;;9.90;100.00;99304.41;110747;1269;23297;-75
2023/10/29 07:27:47;;;;;;;6.10;1.60;;;;;;;9.94;100.00;99306.45;110750;1272;22457;-75
2023/10/29 07:30:15;;;;;;;9.10;1.60;;;;;;;10.01;100.00;99307.32;110716;1267;22984;-76
2023/10/29 07:32:43;;;;;;;7.60;1.70;;;;;;;10.10;100.00;99307.13;110699;1267;22459;-76
2023/10/29 07:35:11;;;;;;;7.80;1.60;;;;;;;10.19;100.00;99309.34;110664;1267;22331;-76
2023/10/29 07:37:40;;;;;;;7.70;1.70;;;;;;;10.26;100.00;99306.58;110669;1257;22233;-75
2023/10/29 07:40:11;;;;;;;10.60;1.20;;;;;;;10.31;100.00;99308.89;110670;1265;22398;-75
2023/10/29 07:42:39;;;;;;;9.90;1.50;;;;;;;10.37;100.00;99306.63;110642;1266;22360;-76
2023/10/29 07:45:08;;;;;;;10.80;1.80;;;;;;;10.41;100.00;99305.43;110655;1272;22381;-76
2023/10/29 07:47:36;;;;;;;10.00;2.20;;;;;;;10.45;100.00;99303.63;110622;1266;22910;-76
2023/10/29 07:50:04;;;;;;;11.10;2.30;;;;;;;10.50;100.00;99300.86;110686;1270;22289;-76
2023/10/29 07:52:39;;;;;;;17.70;3.80;;;;;;;10.56;100.00;99302.71;110630;1266;23245;-76
2023/10/29 07:55:09;;;;;;;16.30;5.70;;;;;;;10.63;100.00;99292.84;110703;1272;22356;-76
2023/10/29 07:57:38;;;;;;;15.10;3.30;;;;;;;10.70;100.00;99302.40;110620;1265;22420;-76
2023/10/29 08:00:09;;;;;;;12.80;4.10;;;;;;;10.77;100.00;99298.57;110644;1265;22384;-76
2023/10/29 08:02:37;;;;;;;25.10;10.70;;;;;;;10.85;100.00;99302.45;110594;1269;22424;-76
2023/10/29 08:05:07;;;;;;;51.10;25.00;;;;;;;10.94;100.00;99298.33;110660;1272;23236;-75
2023/10/29 08:07:35;;;;;;;41.90;18.50;;;;;;;11.04;100.00;99295.63;110730;1272;22439;-75
2023/10/29 08:10:04;;;;;;;33.40;13.80;;;;;;;11.13;100.00;99296.16;110718;1272;22399;-75
2023/10/29 08:12:34;;;;;;;28.20;9.70;;;;;;;11.22;100.00;99294.60;110688;1272;22216;-75
2023/10/29 08:15:03;;;;;;;17.30;6.10;;;;;;;11.29;100.00;99292.02;110661;1272;23079;-76
2023/10/29 08:17:31;;;;;;;16.10;4.10;;;;;;;11.35;100.00;99286.80;110718;1269;23147;-76
2023/10/29 08:19:59;;;;;;;10.00;2.70;;;;;;;11.43;100.00;99288.48;110501;1272;23267;-75
2023/10/29 08:22:30;;;;;;;17.40;4.20;;;;;;;11.50;100.00;99285.33;110698;1270;22399;-75
2023/10/29 08:24:59;;;;;;;16.50;4.60;;;;;;;11.58;100.00;99282.89;110694;1267;23735;-75
2023/10/29 08:27:27;;;;;;;13.90;4.10;;;;;;;11.65;100.00;99280.61;110704;1269;22152;-75
2023/10/29 08:29:56;;;;;;;17.50;4.30;;;;;;;11.72;100.00;99279.89;110718;1272;22487;-75
2023/10/29 08:32:24;;;;;;;25.10;11.60;;;;;;;11.82;100.00;99283.30;110663;1272;23266;-76
2023/10/29 08:34:52;;;;;;;21.70;9.00;;;;;;;11.91;100.00;99287.95;110693;1272;22229;-75
2023/10/29 08:37:20;;;;;;;22.50;11.80;;;;;;;11.99;100.00;99285.20;110693;1272;23173;-75
2023/10/29 08:39:48;;;;;;;16.60;6.00;;;;;;;12.06;99.98;99278.88;110734;1257;22171;-75
2023/10/29 08:42:16;;;;;;;15.60;5.90;;;;;;;12.14;99.59;99273.27;110681;1269;23347;-76
2023/10/29 08:44:44;;;;;;;10.80;2.30;;;;;;;12.21;99.38;99274.51;110747;1269;22967;-77
2023/10/29 08:47:12;;;;;;;7.50;1.70;;;;;;;12.27;99.32;99286.26;110735;1266;22292;-76
2023/10/29 08:49:42;;;;;;;12.70;2.00;;;;;;;12.34;99.43;99295.53;110698;1270;22510;-77
2023/10/29 08:52:10;;;;;;;10.80;1.70;;;;;;;12.40;99.68;99302.54;110699;1272;22172;-78
2023/10/29 08:54:38;;;;;;;10.70;1.80;;;;;;;12.44;99.73;99294.58;110695;1266;23370;-78
2023/10/29 08:57:13;;;;;;;8.50;1.70;;;;;;;12.46;99.36;99287.09;110708;1267;22201;-77
2023/10/29 08:59:41;;;;;;;9.00;1.40;;;;;;;12.49;99.28;99277.31;110687;1269;23263;-77
2023/10/29 09:02:09;;;;;;;7.20;2.20;;;;;;;12.51;99.39;99277.00;110768;1272;22194;-77
2023/10/29 09:04:38;;;;;;;7.20;1.60;;;;;;;12.51;99.53;99274.56;110715;1272;22360;-78
2023/10/29 09:07:07;;;;;;;7.00;1.40;;;;;;;12.52;99.25;99274.65;110742;1272;22940;-77
2023/10/29 09:09:36;;;;;;;8.70;2.40;;;;;;;12.53;98.93;99272.66;110767;1272;22252;-76
2023/10/29 09:12:04;;;;;;;9.40;2.10;;;;;;;12.53;98.46;99269.15;110756;1272;22294;-77
2023/10/29 09:14:32;;;;;;;7.60;1.40;;;;;;;12.53;98.53;99270.23;110638;1267;22349;-77
2023/10/29 09:17:00;;;;;;;7.80;1.30;;;;;;;12.54;97.99;99278.67;110726;1272;23216;-76
2023/10/29 09:19:28;;;;;;;5.50;1.20;;;;;;;12.56;97.82;99283.64;110706;1272;22205;-77
2023/10/29 09:21:57;;;;;;;7.40;1.00;;;;;;;12.58;97.46;99282.21;110677;1272;22172;-78
2023/10/29 09:24:25;;;;;;;8.80;1.10;;;;;;;12.60;97.75;99288.82;110722;1272;23221;-77
2023/10/29 09:26:54;;;;;;;8.50;1.20;;;;;;;12.62;97.29;99286.73;110640;1273;22942;-77
2023/10/29 09:29:23;;;;;;;5.80;1.10;;;;;;;12.64;97.07;99279.89;110755;1267;22172;-78
2023/10/29 09:31:52;;;;;;;7.80;1.00;;;;;;;12.67;97.25;99280.42;110739;1272;22174;-80
2023/10/29 09:34:20;;;;;;;6.50;1.10;;;;;;;12.73;97.52;99280.71;110647;1269;22328;-76
2023/10/29 09:36:48;;;;;;;14.20;2.20;;;;;;;12.78;97.58;99275.90;110706;1272;23261;-78
2023/10/29 09:39:19;;;;;;;8.60;2.10;;;;;;;12.84;97.64;99274.23;110708;1267;23175;-77
2023/10/29 09:41:49;;;;;;;5.70;1.20;;;;;;;12.93;97.77;99272.77;110741;1267;22278;-77
2023/10/29 09:44:20;;;;;;;6.10;0.90;;;;;;;13.02;97.71;99272.05;110723;1272;23157;-77
2023/10/29 09:47:00;;;;;;;6.00;0.80;;;;;;;13.10;97.36;99274.46;110713;1272;22340;-79
2023/10/29 09:49:29;;;;;;;11.20;1.20;;;;;;;13.18;97.28;99270.64;110732;1268;22368;-80
2023/10/29 09:51:57;;;;;;;7.60;0.90;;;;;;;13.23;96.75;99269.52;110750;1270;22402;-79
2023/10/29 09:54:26;;;;;;;4.50;0.70;;;;;;;13.28;96.15;99266.90;110761;1266;22490;-78
2023/10/29 09:56:54;;;;;;;5.80;1.20;;;;;;;13.32;95.78;99268.95;110745;1267;22537;-78
2023/10/29 09:59:23;;;;;;;4.00;0.90;;;;;;;13.36;96.06;99266.92;110723;1266;22345;-78
2023/10/29 10:01:51;;;;;;;16.10;1.20;;;;;;;13.39;96.16;99264.02;110705;1270;23135;-78
2023/10/29 10:04:19;;;;;;;6.10;1.00;;;;;;;13.43;96.33;99256.99;110764;1257;22299;-78
2023/10/29 10:06:48;;;;;;;6.70;1.00;;;;;;;13.45;96.57;99254.27;110719;1271;24161;-78
2023/10/29 10:09:17;;;;;;;5.50;0.90;;;;;;;13.49;96.53;99250.13;110747;1267;22165;-77
2023/10/29 10:11:45;;;;;;;5.80;0.90;;;;;;;13.51;96.30;99250.34;110725;1267;22449;-77
2023/10/29 10:14:26;;;;;;;8.00;1.30;;;;;;;13.54;96.09;99247.53;110754;1268;22332;-77
2023/10/29 10:17:08;;;;;;;10.30;1.90;;;;;;;13.56;95.76;99237.30;110697;1267;22169;-79
2023/10/29 10:19:37;;;;;;;8.90;2.00;;;;;;;13.57;95.36;99232.70;110651;1266;22486;-79
2023/10/29 10:22:06;;;;;;;12.80;2.30;;;;;;;13.59;95.09;99233.29;110685;1268;22175;-77
2023/10/29 10:24:38;;;;;;;12.40;2.80;;;;;;;13.62;95.41;99231.09;110740;1272;22749;-77
2023/10/29 10:27:07;;;;;;;13.90;3.10;;;;;;;13.64;95.49;99224.13;110724;1270;22200;-77
2023/10/29 10:29:36;;;;;;;10.30;2.00;;;;;;;13.70;95.37;99220.24;110679;1267;22590;-76
2023/10/29 10:32:05;;;;;;;11.70;1.90;;;;;;;13.76;95.46;99216.82;110716;1270;22317;-77
2023/10/29 10:34:37;;;;;;;9.00;1.80;;;;;;;13.83;95.55;99218.27;110711;1272;22306;-77
2023/10/29 10:37:06;;;;;;;8.10;1.30;;;;;;;13.90;95.37;99214.42;110711;1267;23229;-76
2023/10/29 10:39:34;;;;;;;5.00;0.90;;;;;;;13.96;95.07;99214.00;110681;1272;23411;-77
2023/10/29 10:42:03;;;;;;;5.30;1.10;;;;;;;14.04;95.12;99210.80;110508;1270;23161;-77
2023/10/29 10:44:34;;;;;;;6.40;1.00;;;;;;;14.13;94.71;99209.61;110642;1272;22343;-78
2023/10/29 10:47:03;;;;;;;4.70;0.80;;;;;;;14.21;94.73;99208.71;110684;1267;22583;-75
2023/10/29 10:49:34;;;;;;;4.80;0.80;;;;;;;14.29;94.43;99209.65;110666;1267;22345;-77
2023/10/29 10:52:02;;;;;;;4.00;0.90;;;;;;;14.38;94.26;99205.41;110687;1272;22317;-77
2023/10/29 10:54:30;;;;;;;4.90;0.70;;;;;;;14.48;93.74;99208.55;110620;1265;22342;-77
2023/10/29 10:57:01;;;;;;;5.60;0.80;;;;;;;14.58;93.42;99195.05;110536;1267;22336;-77
2023/10/29 10:59:35;;;;;;;4.00;0.90;;;;;;;14.69;93.45;99196.56;110619;1267;23221;-77
2023/10/29 11:02:10;;;;;;;3.70;0.90;;;;;;;14.79;92.90;99198.67;110444;1267;22406;-76
2023/10/29 11:04:40;;;;;;;5.90;1.00;;;;;;;14.87;92.66;99195.08;110527;1267;22373;-77
2023/10/29 11:07:08;;;;;;;5.30;0.90;;;;;;;14.93;92.19;99196.11;110614;1265;22330;-77
2023/10/29 11:09:37;;;;;;;7.80;1.40;;;;;;;14.98;92.04;99186.17;110600;1270;22339;-77
2023/10/29 11:12:09;;;;;;;6.60;1.40;;;;;;;15.04;92.17;99186.27;110625;1267;23105;-77
2023/10/29 11:14:38;;;;;;;5.60;1.30;;;;;;;15.08;91.57;99184.48;110691;1267;22356;-77
2023/10/29 11:17:06;;;;;;;4.80;1.10;;;;;;;15.13;91.75;99191.80;110628;1270;22386;-77
2023/10/29 11:19:43;;;;;;;6.10;1.10;;;;;;;15.19;91.38;99192.43;110599;1267;22422;-77
2023/10/29 11:22:22;;;;;;;3.80;0.80;;;;;;;15.23;90.28;99177.99;110608;1270;22441;-76
2023/10/29 11:25:38;;;;;;;5.30;1.10;;;;;;;15.25;90.49;99176.67;110478;1266;22494;-76